Time;durP1;ratioP1;P1;durP2;ratioP2;P2;SDS_P1;SDS_P2;PMS_P1;PMS_P2;Temp;Humidity;BMP_temperature;BMP_pressure;BME280_temperature;BME280_humidity;BME280_pressure;Samples;Min_cycle;Max_cycle;Signal;HPM_P1;HPM_P2
2022/08/10 00:00:19;;;;;;;6.43;5.32;;;14.30;99.90;;;;;;5062702;28;20039;-86
2022/08/10 00:03:06;;;;;;;6.00;4.88;;;14.30;99.90;;;;;;5060253;28;20043;-86
2022/08/10 00:05:53;;;;;;;8.43;4.35;;;14.30;99.90;;;;;;5056060;28;20040;-86
2022/08/10 00:08:38;;;;;;;6.80;5.05;;;14.30;99.90;;;;;;5048647;28;20043;-86
2022/08/10 00:11:22;;;;;;;6.75;5.25;;;14.30;99.90;;;;;;5052437;28;20503;-87
2022/08/10 00:14:06;;;;;;;7.13;5.60;;;14.20;99.90;;;;;;5052373;28;20094;-86
2022/08/10 00:16:50;;;;;;;11.50;5.93;;;14.20;99.90;;;;;;5051824;28;20106;-86
2022/08/10 00:19:34;;;;;;;9.27;5.82;;;14.20;99.90;;;;;;5052110;28;20457;-86
2022/08/10 00:22:19;;;;;;;8.43;5.32;;;14.20;99.90;;;;;;5023829;28;20094;-86
2022/08/10 00:25:04;;;;;;;8.13;5.88;;;14.20;99.90;;;;;;5051914;28;20036;-85
2022/08/10 00:27:48;;;;;;;7.68;6.07;;;14.20;99.90;;;;;;5051983;28;20119;-86
2022/08/10 00:30:32;;;;;;;7.22;6.35;;;14.10;99.90;;;;;;5037261;28;20045;-86
2022/08/10 00:33:17;;;;;;;10.50;6.15;;;14.10;99.90;;;;;;5052188;28;20058;-86
2022/08/10 00:36:01;;;;;;;11.93;6.20;;;14.10;99.90;;;;;;5051675;28;20090;-86
2022/08/10 00:38:45;;;;;;;8.63;6.03;;;14.00;99.90;;;;;;5051004;28;20075;-89
2022/08/10 00:41:29;;;;;;;7.95;6.13;;;14.00;99.90;;;;;;5050663;28;20039;-86
2022/08/10 00:44:13;;;;;;;9.65;6.10;;;14.00;99.90;;;;;;5052160;28;20065;-86
2022/08/10 00:46:59;;;;;;;7.07;6.05;;;14.00;99.90;;;;;;5051236;28;20075;-86
2022/08/10 00:49:44;;;;;;;8.48;6.55;;;14.00;99.90;;;;;;5052299;28;20040;-85
2022/08/10 00:52:29;;;;;;;10.85;7.20;;;14.00;99.90;;;;;;5051036;28;20028;-85
2022/08/10 00:55:14;;;;;;;11.18;6.68;;;14.00;99.90;;;;;;5058557;28;20507;-86
2022/08/10 00:57:59;;;;;;;8.63;7.15;;;14.00;99.90;;;;;;5071343;28;20043;-86
2022/08/10 01:00:46;;;;;;;10.18;6.57;;;14.00;99.90;;;;;;5058225;28;20063;-86
2022/08/10 01:03:30;;;;;;;8.25;6.32;;;14.00;99.90;;;;;;5046343;28;20035;-86
2022/08/10 01:06:38;;;;;;;8.73;7.15;;;13.90;99.90;;;;;;5051151;28;20118;-85
2022/08/10 01:09:36;;;;;;;8.75;6.78;;;14.00;99.90;;;;;;5035551;28;20102;-86
2022/08/10 01:12:44;;;;;;;10.88;7.55;;;13.90;99.90;;;;;;5054216;28;20111;-85
2022/08/10 01:16:03;;;;;;;8.63;7.18;;;13.90;99.90;;;;;;5045272;28;20099;-86
2022/08/10 01:19:32;;;;;;;10.07;7.30;;;13.80;99.90;;;;;;5056016;28;20135;-85
2022/08/10 01:22:41;;;;;;;10.90;6.85;;;13.80;99.90;;;;;;5055587;28;20087;-86
2022/08/10 01:25:47;;;;;;;13.48;8.45;;;13.80;99.90;;;;;;5055966;28;20095;-86
2022/08/10 01:28:37;;;;;;;14.50;8.13;;;13.80;99.90;;;;;;5054374;28;20040;-86
2022/08/10 01:31:29;;;;;;;11.65;7.40;;;13.80;99.90;;;;;;5054616;28;20405;-86
2022/08/10 01:34:41;;;;;;;13.52;8.02;;;13.80;99.90;;;;;;5044288;28;20627;-86
2022/08/10 01:37:33;;;;;;;11.38;7.70;;;13.80;99.90;;;;;;5043530;28;20040;-86
2022/08/10 01:40:21;;;;;;;13.10;8.70;;;13.80;99.90;;;;;;5054757;28;20032;-86
2022/08/10 01:43:09;;;;;;;13.13;9.00;;;13.80;99.90;;;;;;5053941;28;20120;-86
2022/08/10 01:45:56;;;;;;;14.52;9.45;;;13.80;99.90;;;;;;5042638;28;20120;-86
2022/08/10 01:48:49;;;;;;;11.00;7.80;;;13.80;99.90;;;;;;5051636;28;20107;-86
2022/08/10 01:51:45;;;;;;;9.52;7.50;;;13.80;99.90;;;;;;5055553;28;20059;-86
2022/08/10 01:54:30;;;;;;;13.13;8.93;;;13.80;99.90;;;;;;5069724;28;20492;-86
2022/08/10 01:57:16;;;;;;;15.27;9.00;;;13.80;99.90;;;;;;5074749;28;20055;-86
2022/08/10 02:00:01;;;;;;;15.45;9.10;;;13.70;99.90;;;;;;5074457;28;20031;-87
2022/08/10 02:02:47;;;;;;;16.65;8.52;;;13.70;99.90;;;;;;5069392;28;20036;-86
2022/08/10 02:05:32;;;;;;;13.63;9.25;;;13.70;99.90;;;;;;5047557;28;20094;-86
2022/08/10 02:08:19;;;;;;;16.73;8.68;;;13.70;99.90;;;;;;5037552;28;20039;-86
2022/08/10 02:11:04;;;;;;;15.27;8.90;;;13.70;99.90;;;;;;5074087;28;20067;-86
2022/08/10 02:13:49;;;;;;;11.65;8.40;;;13.70;99.90;;;;;;5059710;28;20035;-86
2022/08/10 02:16:36;;;;;;;12.38;9.10;;;13.70;99.90;;;;;;5073731;28;20118;-86
2022/08/10 02:19:23;;;;;;;14.82;9.20;;;13.60;99.90;;;;;;5059631;28;20114;-86
2022/08/10 02:22:10;;;;;;;14.43;9.85;;;13.60;99.90;;;;;;5070380;28;20043;-86
2022/08/10 02:24:56;;;;;;;13.55;10.02;;;13.60;99.90;;;;;;5060300;28;20063;-86
2022/08/10 02:27:42;;;;;;;19.40;10.13;;;13.60;99.90;;;;;;5054538;28;20040;-86
2022/08/10 02:30:27;;;;;;;15.98;10.32;;;13.60;99.90;;;;;;5052879;28;20102;-86
2022/08/10 02:33:14;;;;;;;20.60;11.35;;;13.60;99.90;;;;;;5054004;28;20040;-86
2022/08/10 02:36:01;;;;;;;16.75;11.07;;;13.60;99.90;;;;;;5054140;28;20048;-85
2022/08/10 02:38:52;;;;;;;16.92;10.82;;;13.60;99.90;;;;;;5034845;28;20136;-85
2022/08/10 02:41:36;;;;;;;18.67;11.43;;;13.60;99.90;;;;;;5049809;28;20493;-85
2022/08/10 02:44:41;;;;;;;15.90;11.45;;;13.50;99.90;;;;;;5053801;28;20040;-86
2022/08/10 02:47:28;;;;;;;21.60;12.07;;;13.50;99.90;;;;;;5053810;28;20068;-85
2022/08/10 02:50:32;;;;;;;17.80;11.82;;;13.60;99.90;;;;;;5053366;28;20492;-86
2022/08/10 02:53:34;;;;;;;23.03;13.67;;;13.50;99.90;;;;;;5053440;28;20429;-86
2022/08/10 02:56:26;;;;;;;17.65;12.40;;;13.50;99.90;;;;;;5044013;28;20299;-85
2022/08/10 02:59:32;;;;;;;20.38;12.68;;;13.50;99.90;;;;;;5052783;28;20040;-86
2022/08/10 03:02:24;;;;;;;19.50;12.82;;;13.50;99.90;;;;;;5050491;28;20052;-85
2022/08/10 03:05:12;;;;;;;23.77;12.23;;;13.50;99.90;;;;;;5046040;28;20409;-87
2022/08/10 03:08:03;;;;;;;17.75;12.48;;;13.50;99.90;;;;;;5053940;28;20106;-85
2022/08/10 03:10:49;;;;;;;13.02;10.38;;;13.50;99.90;;;;;;5053549;28;20397;-85
2022/08/10 03:13:35;;;;;;;19.17;11.73;;;13.50;99.90;;;;;;5053569;28;20448;-86
2022/08/10 03:16:21;;;;;;;18.00;12.05;;;13.50;99.90;;;;;;5039910;28;20087;-85
2022/08/10 03:19:07;;;;;;;17.48;11.18;;;13.50;99.90;;;;;;5052522;28;20094;-85
2022/08/10 03:21:54;;;;;;;17.15;11.48;;;13.50;99.90;;;;;;5043381;28;20041;-85
2022/08/10 03:24:40;;;;;;;18.10;11.93;;;13.50;99.90;;;;;;5052274;28;20044;-85
2022/08/10 03:27:24;;;;;;;20.50;12.30;;;13.50;99.90;;;;;;5053034;28;20090;-85
2022/08/10 03:30:10;;;;;;;15.85;11.10;;;13.50;99.90;;;;;;5050421;28;20457;-85
2022/08/10 03:32:55;;;;;;;23.10;12.80;;;13.50;99.90;;;;;;5052522;28;20047;-85
2022/08/10 03:35:39;;;;;;;22.50;12.60;;;13.50;99.90;;;;;;5053298;28;20444;-85
2022/08/10 03:38:24;;;;;;;19.67;11.82;;;13.50;99.90;;;;;;5051653;28;20080;-86
2022/08/10 03:41:12;;;;;;;17.10;12.13;;;13.50;99.90;;;;;;5052340;28;20036;-85
2022/08/10 03:43:58;;;;;;;20.27;12.43;;;13.50;99.90;;;;;;5052994;28;20417;-85
2022/08/10 03:46:45;;;;;;;23.65;12.35;;;13.50;99.90;;;;;;5051927;28;20086;-85
2022/08/10 03:49:32;;;;;;;26.50;13.60;;;13.50;99.90;;;;;;5050949;28;20071;-85
2022/08/10 03:52:18;;;;;;;19.30;12.15;;;13.50;99.90;;;;;;5040345;28;20094;-86
2022/08/10 03:55:03;;;;;;;28.88;14.52;;;13.50;99.90;;;;;;5047085;28;20091;-86
2022/08/10 03:57:48;;;;;;;18.17;12.00;;;13.40;99.90;;;;;;5048464;28;20102;-86
2022/08/10 04:00:35;;;;;;;28.38;14.07;;;13.50;99.90;;;;;;5050215;28;20133;-86
2022/08/10 04:03:20;;;;;;;30.40;14.07;;;13.50;99.90;;;;;;5032178;28;20044;-84
2022/08/10 04:06:04;;;;;;;18.52;11.60;;;13.50;99.90;;;;;;5049962;28;20405;-85
2022/08/10 04:08:49;;;;;;;23.40;12.30;;;13.40;99.90;;;;;;5043838;28;20090;-85
2022/08/10 04:11:33;;;;;;;30.15;13.98;;;13.40;99.90;;;;;;5035184;28;20413;-85
2022/08/10 04:14:17;;;;;;;29.05;14.73;;;13.40;99.90;;;;;;5043251;28;20087;-89
2022/08/10 04:17:01;;;;;;;24.25;13.90;;;13.40;99.90;;;;;;5049456;28;20048;-85
2022/08/10 04:19:49;;;;;;;27.60;14.93;;;13.40;99.90;;;;;;5050197;28;20044;-85
2022/08/10 04:22:35;;;;;;;18.83;12.35;;;13.40;99.90;;;;;;5050212;28;20031;-85
2022/08/10 04:25:21;;;;;;;24.27;13.43;;;13.50;99.90;;;;;;5048614;28;20043;-87
2022/08/10 04:28:07;;;;;;;23.08;14.02;;;13.50;99.90;;;;;;5039017;28;20516;-85
2022/08/10 04:30:53;;;;;;;18.85;12.32;;;13.50;99.90;;;;;;5050821;28;20040;-85
2022/08/10 04:33:44;;;;;;;30.85;15.90;;;13.50;99.90;;;;;;5039661;28;20035;-85
2022/08/10 04:36:29;;;;;;;26.92;14.88;;;13.50;99.90;;;;;;5051669;28;20043;-85
2022/08/10 04:39:14;;;;;;;29.70;16.45;;;13.50;99.90;;;;;;5051354;28;20044;-85
2022/08/10 04:41:59;;;;;;;41.30;17.35;;;13.60;99.90;;;;;;5052490;28;20044;-85
2022/08/10 04:44:44;;;;;;;29.20;14.65;;;13.60;99.90;;;;;;5046225;28;20795;-85
2022/08/10 04:47:28;;;;;;;31.38;16.02;;;13.60;99.90;;;;;;5051628;28;20040;-84
2022/08/10 04:50:12;;;;;;;37.92;17.67;;;13.60;99.90;;;;;;5052195;28;20457;-86
2022/08/10 04:52:56;;;;;;;35.08;16.95;;;13.70;99.90;;;;;;5052174;28;20044;-88
2022/08/10 04:55:40;;;;;;;32.35;16.02;;;13.70;99.90;;;;;;5039190;28;20063;-86
2022/08/10 04:58:24;;;;;;;23.05;14.02;;;13.80;99.90;;;;;;5049727;28;20048;-87
2022/08/10 05:01:09;;;;;;;21.20;13.32;;;13.80;99.90;;;;;;5042896;28;20044;-84
2022/08/10 05:03:53;;;;;;;20.55;12.60;;;13.90;99.90;;;;;;5052163;28;20040;-86
2022/08/10 05:06:37;;;;;;;25.15;15.15;;;13.90;99.90;;;;;;5049647;28;20553;-84
2022/08/10 05:09:21;;;;;;;22.90;14.20;;;13.90;99.90;;;;;;5040188;28;20114;-84
2022/08/10 05:12:07;;;;;;;28.98;15.77;;;14.00;99.90;;;;;;5052142;28;20126;-84
2022/08/10 05:14:51;;;;;;;25.80;14.77;;;14.10;99.90;;;;;;5051987;28;20064;-84
2022/08/10 05:17:36;;;;;;;31.92;15.57;;;14.10;99.90;;;;;;5045037;28;20052;-85
2022/08/10 05:20:20;;;;;;;27.85;15.18;;;14.20;99.90;;;;;;5043754;28;20055;-84
2022/08/10 05:23:06;;;;;;;22.80;14.90;;;14.30;99.90;;;;;;5051734;28;20036;-84
2022/08/10 05:25:50;;;;;;;30.00;15.60;;;14.30;99.90;;;;;;5051183;28;20130;-85
2022/08/10 05:28:34;;;;;;;24.73;14.90;;;14.50;99.90;;;;;;5043747;28;20094;-85
2022/08/10 05:31:19;;;;;;;27.33;15.65;;;14.50;99.90;;;;;;5047136;28;20104;-85
2022/08/10 05:34:03;;;;;;;32.17;16.63;;;14.70;99.90;;;;;;5050957;28;20067;-85
2022/08/10 05:36:47;;;;;;;30.33;17.05;;;14.70;99.90;;;;;;5037382;28;20044;-84
2022/08/10 05:39:33;;;;;;;27.48;16.65;;;14.90;99.90;;;;;;5050194;28;20110;-88
2022/08/10 05:42:20;;;;;;;25.67;15.45;;;15.00;99.90;;;;;;5042509;28;20044;-85
2022/08/10 05:45:04;;;;;;;24.70;15.43;;;15.10;99.90;;;;;;5050072;28;20091;-85
2022/08/10 05:47:49;;;;;;;26.88;16.73;;;15.20;99.90;;;;;;5051058;28;20110;-84
2022/08/10 05:50:35;;;;;;;24.45;15.25;;;15.30;99.90;;;;;;5050389;28;20059;-87
2022/08/10 05:53:20;;;;;;;22.23;15.25;;;15.40;99.90;;;;;;5050166;28;20403;-82
2022/08/10 05:56:06;;;;;;;20.45;13.27;;;15.60;99.90;;;;;;5052548;28;20040;-83
2022/08/10 05:58:51;;;;;;;19.23;12.38;;;15.70;99.90;;;;;;5054493;28;20501;-84
2022/08/10 06:01:40;;;;;;;17.30;11.73;;;15.80;99.90;;;;;;5039847;28;20098;-87
2022/08/10 06:04:29;;;;;;;18.08;11.73;;;15.90;99.90;;;;;;5044548;28;20211;-84
2022/08/10 06:07:15;;;;;;;15.13;11.45;;;16.10;99.90;;;;;;5054902;28;20040;-84
2022/08/10 06:10:01;;;;;;;17.80;10.70;;;16.20;99.90;;;;;;5054659;28;20040;-85
2022/08/10 06:14:59;;;;;;;11.38;9.15;;;16.30;99.90;;;;;;5054537;28;20051;-85
2022/08/10 06:15:53;;;;;;;11.50;9.18;;;16.50;99.90;;;;;;5054087;28;20043;-85
2022/08/10 06:18:39;;;;;;;17.20;8.45;;;16.60;99.90;;;;;;5054247;28;20048;-85
2022/08/10 06:21:24;;;;;;;10.70;7.90;;;16.70;99.90;;;;;;5044210;28;20094;-83
2022/08/10 06:24:09;;;;;;;11.77;8.02;;;16.80;99.90;;;;;;5054591;28;20032;-83
2022/08/10 06:26:54;;;;;;;11.95;7.55;;;17.00;99.90;;;;;;5054171;28;20043;-84
2022/08/10 06:29:42;;;;;;;12.55;7.88;;;17.10;99.90;;;;;;5054272;28;20404;-89
2022/08/10 06:32:28;;;;;;;12.57;7.90;;;17.20;99.90;;;;;;5053990;28;20044;-84
2022/08/10 06:35:13;;;;;;;8.50;7.13;;;17.30;99.90;;;;;;5051918;28;20040;-84
2022/08/10 06:38:02;;;;;;;10.82;6.38;;;17.40;99.90;;;;;;5053959;28;20417;-84
2022/08/10 06:40:47;;;;;;;10.32;7.10;;;17.50;99.90;;;;;;5043961;28;20489;-84
2022/08/10 06:43:34;;;;;;;9.75;6.95;;;17.60;99.90;;;;;;5054245;28;20082;-84
2022/08/10 06:46:20;;;;;;;9.10;6.85;;;17.70;99.90;;;;;;5054432;28;20039;-83
2022/08/10 06:49:07;;;;;;;8.52;6.15;;;17.80;99.90;;;;;;5052829;28;20040;-84
2022/08/10 06:51:56;;;;;;;8.23;6.47;;;17.90;99.90;;;;;;5053575;28;20501;-84
2022/08/10 06:54:41;;;;;;;11.73;5.80;;;18.00;99.90;;;;;;5054241;28;20047;-84
2022/08/10 06:57:30;;;;;;;8.15;4.95;;;18.20;99.90;;;;;;5054116;28;20118;-84
2022/08/10 07:00:15;;;;;;;8.13;5.45;;;18.20;99.90;;;;;;5054025;28;20083;-84
2022/08/10 07:03:05;;;;;;;8.10;5.47;;;18.40;99.90;;;;;;5045354;28;20043;-84
2022/08/10 07:05:52;;;;;;;7.53;5.40;;;18.50;99.90;;;;;;5053451;28;20404;-84
2022/08/10 07:08:38;;;;;;;7.30;5.03;;;18.60;99.90;;;;;;5052803;28;20036;-84
2022/08/10 07:11:23;;;;;;;8.98;5.60;;;18.70;99.90;;;;;;5043446;28;20086;-84
2022/08/10 07:14:11;;;;;;;8.35;4.90;;;18.80;99.90;;;;;;5053083;28;20188;-84
2022/08/10 07:16:56;;;;;;;6.18;4.18;;;19.00;99.90;;;;;;5053509;28;20175;-84
2022/08/10 07:19:42;;;;;;;7.40;5.35;;;19.10;99.90;;;;;;5054088;28;20040;-85
2022/08/10 07:22:30;;;;;;;7.63;4.82;;;19.30;99.90;;;;;;5052520;28;20044;-84
2022/08/10 07:25:21;;;;;;;6.22;4.53;;;19.50;99.90;;;;;;5053687;28;20056;-86
2022/08/10 07:28:07;;;;;;;6.85;4.53;;;20.10;99.90;;;;;;5053008;28;20043;-84
2022/08/10 07:30:52;;;;;;;6.75;4.70;;;20.80;99.90;;;;;;5051965;28;20115;-85
2022/08/10 07:33:38;;;;;;;8.73;4.65;;;21.60;99.90;;;;;;5041487;28;20036;-84
2022/08/10 07:36:24;;;;;;;6.72;4.20;;;22.00;99.90;;;;;;5053261;28;20048;-85
2022/08/10 07:39:11;;;;;;;10.30;4.35;;;22.00;99.90;;;;;;5052910;28;20056;-84
2022/08/10 07:41:56;;;;;;;6.93;4.78;;;21.90;99.90;;;;;;5052893;28;20043;-85
2022/08/10 07:44:43;;;;;;;6.32;4.22;;;21.80;99.90;;;;;;5053196;28;20436;-85
2022/08/10 07:47:35;;;;;;;8.20;4.32;;;21.80;99.90;;;;;;5052299;28;20455;-83
2022/08/10 07:50:23;;;;;;;5.80;3.70;;;21.90;99.90;;;;;;5053085;28;20521;-84
2022/08/10 07:53:11;;;;;;;6.80;3.65;;;22.20;99.90;;;;;;5052407;28;20494;-84
2022/08/10 07:55:58;;;;;;;7.28;4.20;;;22.40;99.90;;;;;;5052495;28;20109;-85
2022/08/10 07:58:48;;;;;;;8.00;3.63;;;22.60;99.90;;;;;;5052808;28;20036;-84
2022/08/10 08:01:39;;;;;;;7.63;4.70;;;22.80;99.90;;;;;;5052942;28;20078;-84
2022/08/10 08:04:24;;;;;;;8.98;3.88;;;23.10;99.90;;;;;;5053078;28;20535;-84
2022/08/10 08:07:09;;;;;;;5.53;3.25;;;23.50;99.90;;;;;;5051281;28;20179;-84
2022/08/10 08:09:55;;;;;;;6.85;3.30;;;24.00;99.90;;;;;;5052586;28;20064;-88
2022/08/10 08:12:41;;;;;;;6.32;3.35;;;24.60;99.90;;;;;;5040057;28;20099;-84
2022/08/10 08:15:26;;;;;;;6.63;4.00;;;24.90;99.90;;;;;;5052553;28;20071;-84
2022/08/10 08:18:11;;;;;;;5.93;2.80;;;24.80;99.90;;;;;;5052143;28;20528;-84
2022/08/10 08:20:57;;;;;;;6.68;2.72;;;24.60;99.90;;;;;;5052090;28;20111;-89
2022/08/10 08:23:42;;;;;;;5.20;3.00;;;24.60;99.90;;;;;;5051569;28;20087;-85
2022/08/10 08:26:27;;;;;;;9.10;3.00;;;24.70;99.90;;;;;;5052592;28;20044;-84
2022/08/10 08:29:13;;;;;;;5.00;2.75;;;24.70;99.90;;;;;;5050806;28;20059;-84
2022/08/10 08:31:58;;;;;;;7.32;2.92;;;24.60;99.90;;;;;;5048134;28;20102;-87
2022/08/10 08:34:44;;;;;;;7.40;3.00;;;24.60;99.90;;;;;;5052140;28;20094;-85
2022/08/10 08:37:32;;;;;;;4.32;2.47;;;24.50;99.90;;;;;;5052402;28;20047;-85
2022/08/10 08:40:23;;;;;;;4.85;2.30;;;24.60;99.90;;;;;;5050848;28;20032;-85
2022/08/10 08:43:08;;;;;;;4.55;2.20;;;24.60;99.90;;;;;;5051654;28;20036;-85
2022/08/10 08:46:27;;;;;;;3.92;1.92;;;24.70;99.90;;;;;;5051331;28;20040;-85
2022/08/10 08:49:42;;;;;;;7.55;2.28;;;24.90;99.90;;;;;;5041997;28;20440;-86
2022/08/10 08:52:58;;;;;;;5.15;2.30;;;24.90;99.90;;;;;;5052319;28;20032;-86
2022/08/10 08:56:00;;;;;;;4.85;2.28;;;25.10;99.90;;;;;;5042628;28;20041;-86
2022/08/10 08:59:24;;;;;;;7.45;2.33;;;25.20;99.90;;;;;;5051997;28;20078;-86
2022/08/10 09:02:37;;;;;;;6.25;2.10;;;25.30;99.90;;;;;;5051462;28;20036;-85
2022/08/10 09:05:40;;;;;;;5.68;2.65;;;25.40;98.40;;;;;;5051410;28;20500;-87
2022/08/10 09:08:42;;;;;;;4.57;2.15;;;25.30;99.90;;;;;;5051339;28;20040;-86
2022/08/10 09:11:46;;;;;;;5.15;2.35;;;25.40;99.90;;;;;;5051623;28;20040;-86
2022/08/10 09:14:45;;;;;;;4.82;2.22;;;25.60;99.50;;;;;;5040551;28;20079;-85
2022/08/10 09:17:53;;;;;;;4.40;2.40;;;25.60;98.40;;;;;;5051841;28;20446;-86
2022/08/10 09:21:07;;;;;;;5.55;2.05;;;25.70;98.40;;;;;;5051765;28;20040;-85
2022/08/10 09:24:00;;;;;;;6.25;2.03;;;25.80;97.70;;;;;;5051841;28;20067;-85
2022/08/10 09:26:52;;;;;;;5.75;2.00;;;25.90;97.50;;;;;;5050954;28;20067;-85
2022/08/10 09:29:53;;;;;;;6.40;1.83;;;25.90;97.10;;;;;;5050836;28;20071;-86
2022/08/10 09:33:00;;;;;;;5.28;2.35;;;26.00;98.00;;;;;;5055356;28;20059;-85
2022/08/10 09:36:09;;;;;;;7.45;2.33;;;26.30;96.70;;;;;;5047008;28;20044;-85
2022/08/10 09:39:01;;;;;;;6.18;2.22;;;26.40;96.10;;;;;;5054697;28;20131;-85
2022/08/10 09:42:04;;;;;;;5.50;1.80;;;26.50;95.80;;;;;;5083994;28;20075;-86
2022/08/10 09:45:01;;;;;;;6.10;2.17;;;26.50;96.10;;;;;;5074553;28;20270;-85
2022/08/10 09:48:00;;;;;;;3.53;1.80;;;26.60;95.60;;;;;;5067407;28;20040;-85
2022/08/10 09:50:55;;;;;;;4.28;1.52;;;26.70;94.90;;;;;;5073130;28;20063;-85
2022/08/10 09:53:54;;;;;;;5.68;1.58;;;26.90;94.90;;;;;;5075106;28;20534;-86
2022/08/10 09:57:16;;;;;;;6.97;2.15;;;27.10;94.40;;;;;;5075178;28;20070;-85
2022/08/10 10:00:12;;;;;;;6.75;1.98;;;27.10;93.10;;;;;;5074289;28;20130;-86
2022/08/10 10:03:24;;;;;;;3.92;1.92;;;27.20;93.50;;;;;;5075138;28;20039;-86
2022/08/10 10:06:52;;;;;;;4.72;1.70;;;27.40;92.10;;;;;;5073798;28;20085;-87
2022/08/10 10:09:45;;;;;;;4.70;2.03;;;27.50;91.40;;;;;;5074655;28;20063;-86
2022/08/10 10:12:51;;;;;;;4.50;1.60;;;27.60;90.60;;;;;;5074166;28;20106;-88
2022/08/10 10:15:54;;;;;;;3.78;1.65;;;27.70;90.10;;;;;;5074588;28;20074;-87
2022/08/10 10:18:57;;;;;;;6.10;1.50;;;27.90;88.90;;;;;;5056005;28;20039;-87
2022/08/10 10:22:06;;;;;;;4.65;1.52;;;28.00;89.60;;;;;;5050333;28;20108;-86
2022/08/10 10:25:29;;;;;;;6.32;1.52;;;28.20;89.00;;;;;;5074502;28;20105;-86
2022/08/10 10:28:27;;;;;;;3.10;1.50;;;28.40;82.90;;;;;;5074146;28;20090;-88
2022/08/10 10:31:26;;;;;;;4.60;1.50;;;28.40;83.80;;;;;;5072596;28;20035;-86
2022/08/10 10:34:37;;;;;;;5.95;1.67;;;28.50;81.00;;;;;;5072792;28;20491;-86
2022/08/10 10:37:23;;;;;;;6.03;1.65;;;28.50;82.00;;;;;;5070935;28;20098;-86
2022/08/10 10:40:08;;;;;;;5.15;1.70;;;28.60;81.80;;;;;;5074579;28;20074;-86
2022/08/10 10:43:10;;;;;;;2.80;1.40;;;28.60;81.70;;;;;;5074299;28;20090;-85
2022/08/10 10:46:21;;;;;;;4.75;1.35;;;28.80;80.50;;;;;;5073585;28;20043;-86
2022/08/10 10:49:44;;;;;;;3.25;1.35;;;28.80;78.50;;;;;;5073509;28;20458;-85
2022/08/10 10:52:50;;;;;;;2.60;1.10;;;28.80;73.20;;;;;;5072857;28;20044;-87
2022/08/10 10:55:48;;;;;;;3.47;1.63;;;28.90;76.70;;;;;;5073399;28;20035;-86
2022/08/10 10:58:48;;;;;;;3.88;1.50;;;29.00;75.30;;;;;;5073493;28;20503;-85
2022/08/10 11:01:54;;;;;;;3.95;1.38;;;29.10;74.60;;;;;;5073627;28;20042;-86
2022/08/10 11:04:48;;;;;;;4.60;2.08;;;29.10;72.50;;;;;;5073482;28;20094;-86
2022/08/10 11:07:43;;;;;;;3.28;1.20;;;29.20;74.70;;;;;;5073562;28;20125;-86
2022/08/10 11:10:53;;;;;;;4.40;1.25;;;29.20;73.00;;;;;;5073167;28;20031;-86
2022/08/10 11:13:52;;;;;;;4.53;1.38;;;29.20;72.40;;;;;;5073459;28;20088;-86
2022/08/10 11:16:50;;;;;;;2.08;1.35;;;29.20;72.00;;;;;;5073197;28;20043;-86
2022/08/10 11:19:37;;;;;;;4.85;1.60;;;29.20;72.30;;;;;;5073309;28;20082;-86
2022/08/10 11:22:29;;;;;;;2.47;1.20;;;29.30;71.30;;;;;;5072209;28;20040;-85
2022/08/10 11:25:31;;;;;;;5.90;1.40;;;29.30;71.80;;;;;;5073727;28;20039;-84
2022/08/10 11:28:16;;;;;;;4.57;1.50;;;29.30;68.90;;;;;;5073723;28;20092;-84
2022/08/10 11:31:10;;;;;;;3.00;1.20;;;29.40;70.40;;;;;;5072776;28;20537;-85
2022/08/10 11:34:36;;;;;;;2.20;1.10;;;29.50;67.20;;;;;;5053221;28;20079;-87
2022/08/10 11:38:01;;;;;;;4.13;1.25;;;29.70;66.60;;;;;;5037716;28;20091;-84
2022/08/10 11:41:07;;;;;;;3.88;1.20;;;29.90;69.10;;;;;;5046193;28;20083;-83
2022/08/10 11:44:07;;;;;;;3.05;1.20;;;30.10;66.10;;;;;;5051288;28;20047;-83
2022/08/10 11:47:07;;;;;;;3.60;1.60;;;30.10;65.40;;;;;;5052773;28;20159;-84
2022/08/10 11:49:54;;;;;;;2.70;1.13;;;30.10;63.30;;;;;;5053428;28;20060;-86
2022/08/10 11:52:47;;;;;;;3.97;1.40;;;30.00;64.10;;;;;;5049242;28;20058;-87
2022/08/10 11:55:32;;;;;;;;;;;30.00;63.60;;;;;;5051933;28;20067;-84
2022/08/10 12:01:29;;;;;;;6.35;1.40;;;30.00;62.50;;;;;;5050456;28;20036;-85
2022/08/10 12:04:15;;;;;;;4.10;1.13;;;30.00;62.80;;;;;;5049202;28;20055;-85
2022/08/10 12:07:03;;;;;;;2.65;1.35;;;30.00;63.20;;;;;;5050313;28;20052;-85
2022/08/10 12:09:49;;;;;;;4.85;1.23;;;30.00;61.90;;;;;;5049228;28;20110;-84
2022/08/10 12:12:43;;;;;;;5.35;1.27;;;30.00;62.40;;;;;;5049336;28;20512;-85
2022/08/10 12:15:42;;;;;;;2.45;1.35;;;30.10;62.40;;;;;;5046904;28;20044;-84
2022/08/10 12:18:35;;;;;;;4.03;0.90;;;30.10;60.40;;;;;;5048270;28;20075;-85
2022/08/10 12:21:49;;;;;;;2.78;1.38;;;30.00;61.70;;;;;;5047729;28;20047;-86
2022/08/10 12:24:52;;;;;;;4.20;1.38;;;30.10;59.90;;;;;;5044460;28;20068;-85
2022/08/10 12:27:36;;;;;;;2.22;1.10;;;;;;;;;;5040698;28;20090;-85
2022/08/10 12:30:28;;;;;;;3.47;1.02;;;30.20;59.50;;;;;;5050534;28;20063;-85
2022/08/10 12:33:24;;;;;;;3.40;1.10;;;30.30;61.20;;;;;;5049337;28;20590;-85
2022/08/10 12:36:21;;;;;;;5.65;1.20;;;30.30;61.40;;;;;;5049123;28;20087;-86
2022/08/10 12:39:20;;;;;;;3.92;1.30;;;30.30;59.10;;;;;;5049732;28;20052;-85
2022/08/10 12:42:16;;;;;;;2.72;1.00;;;30.30;58.90;;;;;;5050474;28;20566;-85
2022/08/10 12:45:06;;;;;;;2.85;1.00;;;30.30;58.20;;;;;;5049778;28;20051;-85
2022/08/10 12:48:04;;;;;;;3.70;1.10;;;30.30;58.40;;;;;;5046473;28;20036;-86
2022/08/10 12:50:56;;;;;;;4.50;1.20;;;30.30;58.60;;;;;;5047849;28;20040;-85
2022/08/10 12:53:47;;;;;;;3.25;1.17;;;30.30;58.20;;;;;;5048109;28;20454;-86
2022/08/10 12:56:35;;;;;;;2.42;1.10;;;30.30;58.60;;;;;;5050540;28;20532;-86
2022/08/10 12:59:23;;;;;;;4.65;1.20;;;30.30;58.00;;;;;;5051299;28;20051;-86
2022/08/10 13:02:13;;;;;;;2.45;0.93;;;30.40;57.20;;;;;;5045313;28;20123;-85
2022/08/10 13:05:05;;;;;;;3.70;1.27;;;30.40;58.00;;;;;;5047010;28;20048;-85
2022/08/10 13:09:07;;;;;;;2.40;1.20;;;30.60;57.90;;;;;;5050380;28;20139;-85
2022/08/10 13:11:03;;;;;;;3.53;0.93;;;30.70;56.80;;;;;;5051442;28;20102;-86
2022/08/10 13:13:51;;;;;;;4.57;1.40;;;30.90;56.30;;;;;;5051280;28;20408;-87
2022/08/10 13:16:36;;;;;;;2.13;1.08;;;31.00;56.70;;;;;;5055898;28;20051;-87
2022/08/10 13:19:21;;;;;;;2.55;1.40;;;31.00;56.20;;;;;;5055177;28;20060;-86
2022/08/10 13:22:07;;;;;;;2.53;1.10;;;31.00;55.60;;;;;;5055668;28;20078;-86
2022/08/10 13:24:54;;;;;;;2.72;1.38;;;30.80;56.10;;;;;;5055436;28;20401;-86
2022/08/10 13:27:41;;;;;;;4.07;1.20;;;30.70;56.30;;;;;;5053497;28;20032;-87
2022/08/10 13:30:27;;;;;;;4.82;1.55;;;30.70;57.10;;;;;;5054737;28;20044;-86
2022/08/10 13:33:16;;;;;;;3.78;1.20;;;30.70;57.20;;;;;;5055794;28;20035;-87
2022/08/10 13:36:02;;;;;;;4.18;1.13;;;30.80;56.30;;;;;;5040111;28;20118;-86
2022/08/10 13:38:48;;;;;;;3.25;1.20;;;30.80;56.20;;;;;;5054798;28;20095;-85
2022/08/10 13:41:42;;;;;;;3.40;1.40;;;30.90;57.30;;;;;;5054495;28;20040;-84
2022/08/10 13:44:33;;;;;;;3.35;0.95;;;31.00;53.30;;;;;;5055563;28;20106;-85
2022/08/10 13:47:27;;;;;;;4.93;1.65;;;31.00;55.40;;;;;;5044078;28;20401;-87
2022/08/10 13:50:17;;;;;;;5.35;1.10;;;31.00;54.10;;;;;;5054029;28;20036;-85
2022/08/10 13:53:05;;;;;;;3.92;1.27;;;31.00;54.90;;;;;;5054892;28;20044;-86
2022/08/10 13:55:56;;;;;;;3.15;1.15;;;31.10;55.10;;;;;;5043205;28;20496;-85
2022/08/10 13:58:41;;;;;;;2.15;1.00;;;31.00;55.20;;;;;;5054899;28;20052;-85
2022/08/10 14:01:30;;;;;;;5.43;1.30;;;31.10;55.50;;;;;;5055213;28;20468;-83
2022/08/10 14:04:15;;;;;;;2.75;1.30;;;31.20;54.60;;;;;;5054385;28;20047;-84
2022/08/10 14:07:00;;;;;;;2.08;1.17;;;31.20;54.80;;;;;;5049668;28;20075;-84
2022/08/10 14:09:46;;;;;;;2.95;1.40;;;31.10;54.80;;;;;;5053314;28;20044;-84
2022/08/10 14:12:31;;;;;;;6.07;1.55;;;31.00;55.00;;;;;;5052236;28;20555;-83
2022/08/10 14:15:19;;;;;;;2.95;1.60;;;31.00;55.90;;;;;;5054234;28;20055;-84
2022/08/10 14:18:05;;;;;;;4.28;1.50;;;31.00;54.30;;;;;;5052133;28;21229;-88
2022/08/10 14:20:52;;;;;;;2.63;1.30;;;30.90;54.80;;;;;;5051161;28;20075;-88
2022/08/10 14:23:41;;;;;;;4.30;1.58;;;31.00;55.80;;;;;;5053323;28;20595;-88
2022/08/10 14:26:30;;;;;;;5.10;1.20;;;31.00;53.60;;;;;;5053425;28;20086;-88
2022/08/10 14:29:16;;;;;;;4.13;1.60;;;31.10;52.60;;;;;;5054174;28;20083;-87
2022/08/10 14:32:05;;;;;;;2.50;1.60;;;31.00;54.00;;;;;;5052840;28;20066;-88
2022/08/10 14:34:52;;;;;;;3.30;1.10;;;31.10;53.60;;;;;;5054279;28;20519;-87
2022/08/10 14:37:40;;;;;;;2.60;1.40;;;31.00;52.80;;;;;;5053759;28;20052;-88
2022/08/10 14:40:34;;;;;;;3.55;1.60;;;30.80;52.70;;;;;;5054832;28;20052;-85
2022/08/10 14:43:40;;;;;;;4.22;1.50;;;30.80;53.20;;;;;;5054341;28;20036;-84
2022/08/10 14:46:27;;;;;;;2.63;1.00;;;30.70;54.10;;;;;;5052438;28;20098;-84